Pagrindinis puslapis
METAR-TAF:

METAR-TAF

Oro uostai :

Marianhamina, Suomija

platuma: 60-07N, ilguma: 019-54E, Aukštis: 6 m

Dabartinis oras

Ataskaita buvo paskelbta 14 minutes, ne 05:50 UTC
Vėjas 7 kt iš Šiaurės/Šiaurės Rytų
Temperatūra 17°C
Drėgmė 94%
Slėgis 1016 hPa
Matomumas 10 km arba daugiau
Su prošvaistėmis ne aukštis 800 ft

METAR: EFMA 130550Z AUTO 03007KT 9999 BKN008 17/16 Q1016

Laikas: 09:04 (06:04 UTC)

Prognozė

Ataskaita buvo paskelbta 38 minutes, ne 05:26 UTC
Prognozė galioja nuo 13 metu 06 UTC su 13 metu 15 UTC
Vėjas 7 kt iš Šiaurės Rytų
Matomumas 10 km arba daugiau
Su prošvaistėmis ne aukštis 500 ft
Tapsmas
nuo 13 metu 06 UTC su 13 metu 08 UTC
Išsisklaidę debesys ne aukštis 500 ft
Su prošvaistėmis ne aukštis 1500 ft

TAF: EFMA 130526Z 1306/1315 04007KT 9999 BKN005 BECMG 1306/1308 SCT005 BKN015

Orai ataskaitas ir orų prognozės (METAR, TAF).

turimą stotys yra geltonos ir raudonos taškus žemėlapyje.

Perkelti pele per norėdami pamatyti stoties vardą.

Tada spustelėkite, norėdami matyti oro stebėjimo ir prognozės.

Norėdami pakeisti žemėlapį: spustelėkite ant žalios mygtukų su juodo kryžiaus žemyn,; žalią mygtuką su brūkšneliu, jei norite nutolinti; arba žalių rodyklių gretimoms žemėlapius.


METAR-TAF: